KICL

Schenck Field Airport

Clarinda, Iowa, USA
METAR KICL 241155Z AUTO 08009G15KT 9SM M02/M03 A3003 RMK AO2
Observed Flight Rules
Feb-24 @ 11:55 UTC (25 minutes ago)
Wind Visibility
80° at 9 knots
 Gusting to 15 knots
9 miles
Temperatures Readings
Current -2°C / 28°F
Dewpoint -3°C / 27°F
Humidity 93%
Altimeter 30.03" Hg
Pressure 1017 hPa
Elevation 303
METAR KICL 241155Z AUTO 08009G15KT 9SM M02/M03 A3003 RMK AO2
Observed Flight Rules
Feb-24 @ 11:55 UTC
(25 minutes ago)
Wind Visibility
80° at 9 knots
 Gusting to 15 knots
9 miles
Temperature Dewpoint
-2°C / 28°F -3°C / 27°F
Humidity Altimeter Pressure
93% 30.03" Hg 1017 hPa